Relevés horaires Schaffen (Belgique)


Relevés horaires à Schaffen - Jeudi 24 Août 2017
Heure UTC1 Température [°C] Vent [km/h] Hum. [%] Pres.4 [hPa] Visi. [Km] Nébu. [octa] Préc.5 [mm] Cond.
2m. Res. Ros. Dir.2 Vit. Moy. Raf.3
23:00 14.2 14.2 12.1 NNO 1.9 -- 1.9 87 1018.8(0.0/3h) 20 -- -- --
22:00 15.5 15.5 10.8 NNO 1.9 -- 1.9 74 1018.8(0.7/3h) 20 -- -- --
21:00 16.4 16.4 10.8 NNO 1.9 -- 7.4 69 1018.8(1.0/3h) 20 -- -- --
20:00 16.8 16.8 10.8 NNO 3.7 -- 3.7 68 1018.7(0.9/3h) 20 -- -- --
19:00 17.7 17.7 11.7 N 3.7 -- 7.4 68 1018.1(0.2/3h) 20 -- -- --
18:00 19.8 19.8 13.0 N 5.6 -- 13.0 65 1017.7(0.0/3h) 20 -- -- --
17:00 21.3 21.3 12.4 ONO 5.6 -- 9.3 57 1017.6(0.0/3h) 20 -- -- --
16:00 22.0 22.0 12.3 O 5.6 -- 13.0 54 1017.7(0.0/3h) 20 -- -- --
15:00 22.6 22.6 12.7 O 3.7 -- 11.1 54 1017.7(0.0/3h) 20 5/8 -- --
14:00 22.1 22.1 12.2 OSO 3.7 -- 7.4 53 1017.7(0.0/3h) 20 4/8 -- --
13:00 22.0 22.0 12.9 O 3.7 -- 11.1 56 1017.7(0.0/3h) 20 4/8 -- --
12:00 21.1 21.1 12.9 OSO 7.4 -- 13.0 59 1017.6(0.0/3h) 20 4/8 -- --
11:00 20.7 20.7 13.2 SO 5.6 -- 11.1 62 1017.7(0.3/3h) 20 4/8 -- --
10:00 19.8 19.8 14.3 SO 5.6 -- 13.0 71 1017.7(0.7/3h) 20 4/8 -- --
09:00 18.4 18.4 14.5 OSO 5.6 -- 11.1 78 1017.7(0.8/3h) 20 5/8 -- --
08:00 16.5 16.5 14.2 OSO 5.6 -- 11.1 86 1017.8(1.0/3h) 12 7/8 -- --
07:00 16.2 16.2 14.6 OSO 3.7 -- 9.3 90 1017.2(0.9/3h) 12 7/8 -- --
06:00 15.3 15.3 14.1 OSO 3.7 -- 9.3 93 1017(0.9/3h) 12 7/8 -- --
05:00 15.0 15.0 13.8 SO 3.7 -- 7.4 93 1016.5(0.6/3h) 15 6/8 -- --
04:00 14.8 14.8 13.6 SO 3.7 -- 7.4 93 1016.2(0.4/3h) 20 6/8 -- --
03:00 14.8 14.8 13.5 NNO 1.9 -- 9.3 92 1016(0.2/3h) 20 -- -- --
02:00 15.3 15.3 13.5 SO 3.7 -- 5.6 89 1015.7(0.0/3h) 20 -- -- --
01:00 16.1 16.1 13.6 NNO 1.9 -- 9.3 85 1015.7(0.2/3h) 20 -- -- --
00:00 17.1 17.1 13.6 OSO 5.6 -- 16.7 80 1015.7(0.9/3h) 20 -- -- --

1 Coordinated Universal Time. Actuellement il est 10:00 locale et 09:00 UTC.

2 Le vent souffle depuis la direction indiquée vers la direction oposée.

3 Les rafales max. sont disponible 40 min après l'heure du relevé.

4 Pour les stations d'altitude (plus de 600m) le géopotentiel du niveau le plus proche de la pression obligatoire est indiqué.

5 Les stations disposant d'un diffuseur peuvent indiquer "trace". Cela signifie que des précipitations ont touchés le sol mais que la quantité est inférieure à 0.1 mm.

Récapitulatif de la journée
Température [°C] Vent [km/h] Ensoleillement4 [h] Precipitations totale5 [mm] Pression [Hpa]
Min1 Max.2 Moy.3 Max. Min Max.
14.8 23.2 0 16.7 0 h 0 min 0 1015.7 1018.8

1 Température minimale relevée entre 18:00 UTC la veille et 18:00 UTC le jour donné.

2 Température maximale relevée entre 06:00 UTC le jour donné et 06:00 UTC le lendemain.

3 Vent moyen de la journée basé sur les relevés horaires.

4 Ensoleillement en heures relevé entre 06:00 UTC la veille et 06:00 UTC le jour donné.

5 Précipitations totales tombées entre 06:00 UTC la jour donné et 06:00 UTC le lendemain.

Graphiques horaires